VOZ1449 YPAD-YBCG
Flight info
| Callsign | VOZ1449 |
|---|---|
| Flight time | 2h 4m |
| Altitude | 35000 |
| Route | AD DCT UPROT DCT UBDIB Y54 BERNI Y43 GOMOL |
| Aircraft | B738/M-SDE2E3FGHIRWXY/LB1 |
Departure
| Time | 2026-04-28 04:34 |
|---|---|
| Airport | Adelaide International Airport (YPAD) |
Arrival
| Time | 2026-04-28 06:38 |
|---|---|
| Airport | Gold Coast Airport (YBCG) |
| Time | Latitude | Longitude | Altitude | Speed | Heading |
|---|---|---|---|---|---|
| 2026-04-28 03:59 | -34.93856 | 138.53958 | 26 ft | 0 kts | 320° |
| 2026-04-28 04:27 | -34.93857 | 138.53959 | 26 ft | 1 kts | 320° |
| 2026-04-28 04:28 | -34.93870 | 138.53972 | 28 ft | 3 kts | 319° |
| 2026-04-28 04:28 | -34.93885 | 138.53989 | 32 ft | 3 kts | 315° |
| 2026-04-28 04:28 | -34.93899 | 138.54007 | 31 ft | 3 kts | 302° |
| 2026-04-28 04:28 | -34.93906 | 138.54027 | 30 ft | 2 kts | 274° |
| 2026-04-28 04:29 | -34.93907 | 138.54032 | 30 ft | 1 kts | 269° |
| 2026-04-28 04:31 | -34.93901 | 138.54019 | 31 ft | 2 kts | 326° |
| 2026-04-28 04:31 | -34.93887 | 138.54029 | 29 ft | 2 kts | 60° |
| 2026-04-28 04:32 | -34.93883 | 138.54066 | 26 ft | 8 kts | 83° |
| 2026-04-28 04:32 | -34.93904 | 138.54146 | 26 ft | 13 kts | 132° |
| 2026-04-28 04:32 | -34.93981 | 138.54228 | 28 ft | 14 kts | 140° |
| 2026-04-28 04:32 | -34.94052 | 138.54300 | 27 ft | 10 kts | 147° |
| 2026-04-28 04:33 | -34.94101 | 138.54269 | 27 ft | 8 kts | 229° |
| 2026-04-28 04:33 | -34.94204 | 138.54117 | 28 ft | 56 kts | 230° |
| 2026-04-28 04:33 | -34.94610 | 138.53526 | 21 ft | 123 kts | 230° |
| 2026-04-28 04:33 | -34.95275 | 138.52572 | 112 ft | 165 kts | 236° |
| 2026-04-28 04:34 | -34.96016 | 138.51489 | 730 ft | 172 kts | 234° |
| 2026-04-28 04:34 | -34.96761 | 138.50297 | 1299 ft | 180 kts | 239° |
| 2026-04-28 04:34 | -34.97465 | 138.49074 | 2205 ft | 170 kts | 240° |
| 2026-04-28 04:34 | -34.98218 | 138.47879 | 2712 ft | 192 kts | 233° |
| 2026-04-28 04:35 | -34.99166 | 138.46543 | 2845 ft | 222 kts | 234° |
| 2026-04-28 04:35 | -35.00234 | 138.45089 | 3264 ft | 235 kts | 232° |
| 2026-04-28 04:35 | -35.01375 | 138.43529 | 3627 ft | 256 kts | 231° |
| 2026-04-28 04:35 | -35.02847 | 138.42243 | 4299 ft | 269 kts | 202° |
| 2026-04-28 04:36 | -35.04689 | 138.41983 | 5121 ft | 276 kts | 172° |
| 2026-04-28 04:36 | -35.06456 | 138.42911 | 5870 ft | 282 kts | 145° |
| 2026-04-28 04:36 | -35.08020 | 138.44386 | 6628 ft | 287 kts | 143° |
| 2026-04-28 04:36 | -35.09563 | 138.45977 | 7277 ft | 295 kts | 133° |
| 2026-04-28 04:37 | -35.10539 | 138.48177 | 8010 ft | 298 kts | 102° |
| 2026-04-28 04:37 | -35.10667 | 138.50671 | 8916 ft | 295 kts | 84° |
| 2026-04-28 04:37 | -35.10501 | 138.53185 | 9762 ft | 298 kts | 83° |
| 2026-04-28 04:37 | -35.10313 | 138.55721 | 10490 ft | 305 kts | 83° |
| 2026-04-28 04:38 | -35.10116 | 138.58413 | 10725 ft | 330 kts | 82° |
| 2026-04-28 04:38 | -35.09440 | 138.61162 | 10885 ft | 350 kts | 57° |
| 2026-04-28 04:38 | -35.07920 | 138.63509 | 11093 ft | 367 kts | 46° |
| 2026-04-28 04:38 | -35.06141 | 138.65841 | 11371 ft | 383 kts | 45° |
| 2026-04-28 04:39 | -35.04299 | 138.68231 | 11917 ft | 389 kts | 45° |
| 2026-04-28 04:39 | -35.02449 | 138.70641 | 12588 ft | 392 kts | 45° |
| 2026-04-28 04:39 | -35.00579 | 138.73104 | 13190 ft | 397 kts | 46° |
| 2026-04-28 04:39 | -34.98701 | 138.75597 | 13800 ft | 402 kts | 45° |
| 2026-04-28 04:40 | -34.96796 | 138.78130 | 14410 ft | 405 kts | 45° |
| 2026-04-28 04:40 | -34.94882 | 138.80673 | 14993 ft | 409 kts | 45° |
| 2026-04-28 04:40 | -34.92976 | 138.83199 | 15567 ft | 413 kts | 45° |
| 2026-04-28 04:40 | -34.91023 | 138.85783 | 16193 ft | 416 kts | 44° |
| 2026-04-28 04:41 | -34.89057 | 138.88385 | 16758 ft | 420 kts | 45° |
| 2026-04-28 04:41 | -34.87071 | 138.91009 | 17354 ft | 423 kts | 45° |
| 2026-04-28 04:41 | -34.85070 | 138.93652 | 17940 ft | 426 kts | 45° |
| 2026-04-28 04:41 | -34.83050 | 138.96318 | 18497 ft | 430 kts | 45° |
| 2026-04-28 04:42 | -34.81014 | 138.99003 | 18968 ft | 434 kts | 45° |
| 2026-04-28 04:42 | -34.78964 | 139.01706 | 19437 ft | 437 kts | 45° |
| 2026-04-28 04:42 | -34.76895 | 139.04431 | 19919 ft | 439 kts | 45° |
| 2026-04-28 04:42 | -34.74841 | 139.07136 | 20388 ft | 442 kts | 45° |
| 2026-04-28 04:43 | -34.72748 | 139.09889 | 20840 ft | 446 kts | 45° |
| 2026-04-28 04:43 | -34.70633 | 139.12668 | 21305 ft | 449 kts | 45° |
| 2026-04-28 04:43 | -34.68506 | 139.15461 | 21758 ft | 452 kts | 44° |
| 2026-04-28 04:43 | -34.66363 | 139.18274 | 22198 ft | 455 kts | 44° |
| 2026-04-28 04:44 | -34.64206 | 139.21104 | 22638 ft | 458 kts | 45° |
| 2026-04-28 04:44 | -34.62039 | 139.23943 | 23072 ft | 460 kts | 45° |
| 2026-04-28 04:44 | -34.59854 | 139.26803 | 23462 ft | 463 kts | 44° |
| 2026-04-28 04:44 | -34.57781 | 139.29751 | 23823 ft | 469 kts | 51° |
| 2026-04-28 04:45 | -34.56044 | 139.33122 | 24142 ft | 474 kts | 60° |
| 2026-04-28 04:45 | -34.54740 | 139.36819 | 24479 ft | 478 kts | 67° |
| 2026-04-28 04:45 | -34.53572 | 139.40602 | 24803 ft | 480 kts | 68° |
| 2026-04-28 04:45 | -34.52412 | 139.44413 | 25115 ft | 483 kts | 68° |
| 2026-04-28 04:46 | -34.51242 | 139.48237 | 25411 ft | 485 kts | 68° |
| 2026-04-28 04:46 | -34.50052 | 139.52075 | 25699 ft | 488 kts | 67° |
| 2026-04-28 04:46 | -34.48844 | 139.55927 | 25991 ft | 490 kts | 67° |
| 2026-04-28 04:46 | -34.47623 | 139.59786 | 26269 ft | 492 kts | 67° |
| 2026-04-28 04:47 | -34.46406 | 139.63611 | 26542 ft | 494 kts | 67° |
| 2026-04-28 04:47 | -34.45164 | 139.67502 | 26800 ft | 496 kts | 67° |
| 2026-04-28 04:47 | -34.43916 | 139.71406 | 27079 ft | 498 kts | 67° |
| 2026-04-28 04:47 | -34.42663 | 139.75325 | 27342 ft | 500 kts | 67° |
| 2026-04-28 04:48 | -34.41405 | 139.79254 | 27625 ft | 500 kts | 67° |
| 2026-04-28 04:48 | -34.40148 | 139.83178 | 27995 ft | 500 kts | 67° |
| 2026-04-28 04:48 | -34.38893 | 139.87094 | 28408 ft | 498 kts | 67° |
| 2026-04-28 04:48 | -34.37638 | 139.91001 | 28799 ft | 497 kts | 67° |
| 2026-04-28 04:49 | -34.36385 | 139.94900 | 29151 ft | 497 kts | 68° |
| 2026-04-28 04:49 | -34.35133 | 139.98790 | 29656 ft | 494 kts | 68° |
| 2026-04-28 04:49 | -34.33903 | 140.02604 | 30068 ft | 493 kts | 68° |
| 2026-04-28 04:49 | -34.32654 | 140.06474 | 30399 ft | 494 kts | 68° |
| 2026-04-28 04:50 | -34.31401 | 140.10350 | 30690 ft | 495 kts | 68° |
| 2026-04-28 04:50 | -34.30146 | 140.14228 | 31001 ft | 495 kts | 68° |
| 2026-04-28 04:50 | -34.28893 | 140.18097 | 31331 ft | 495 kts | 68° |
| 2026-04-28 04:50 | -34.27634 | 140.21979 | 31649 ft | 496 kts | 68° |
| 2026-04-28 04:51 | -34.26374 | 140.25861 | 31948 ft | 496 kts | 68° |
| 2026-04-28 04:51 | -34.25115 | 140.29734 | 32305 ft | 495 kts | 68° |
| 2026-04-28 04:51 | -34.23870 | 140.33558 | 32639 ft | 495 kts | 68° |
| 2026-04-28 04:51 | -34.22748 | 140.37485 | 32929 ft | 496 kts | 74° |
| 2026-04-28 04:52 | -34.21858 | 140.41515 | 33243 ft | 496 kts | 76° |
| 2026-04-28 04:52 | -34.21045 | 140.45565 | 33583 ft | 496 kts | 77° |
| 2026-04-28 04:52 | -34.20257 | 140.49613 | 33931 ft | 495 kts | 77° |
| 2026-04-28 04:52 | -34.19465 | 140.53660 | 34244 ft | 495 kts | 77° |
| 2026-04-28 04:53 | -34.18658 | 140.57705 | 34538 ft | 495 kts | 77° |
| 2026-04-28 04:53 | -34.17839 | 140.61728 | 34877 ft | 493 kts | 76° |
| 2026-04-28 04:53 | -34.17008 | 140.65747 | 35006 ft | 496 kts | 76° |
| 2026-04-28 04:54 | -34.15321 | 140.73793 | 35008 ft | 496 kts | 76° |
| 2026-04-28 04:54 | -34.13629 | 140.81801 | 34996 ft | 489 kts | 76° |
| 2026-04-28 04:55 | -34.11945 | 140.89760 | 35045 ft | 491 kts | 77° |
| 2026-04-28 04:55 | -34.11099 | 140.93755 | 35250 ft | 492 kts | 77° |
| 2026-04-28 04:55 | -34.10249 | 140.97763 | 35231 ft | 495 kts | 77° |
| 2026-04-28 04:56 | -34.08586 | 141.05584 | 35237 ft | 492 kts | 77° |
| 2026-04-28 04:56 | -34.06908 | 141.13446 | 35254 ft | 487 kts | 77° |
| 2026-04-28 04:57 | -34.05266 | 141.21116 | 35247 ft | 485 kts | 77° |
| 2026-04-28 04:57 | -34.03575 | 141.28986 | 35245 ft | 484 kts | 77° |
| 2026-04-28 04:58 | -34.01889 | 141.36809 | 35253 ft | 484 kts | 77° |
| 2026-04-28 04:58 | -34.00194 | 141.44648 | 35247 ft | 484 kts | 77° |
| 2026-04-28 04:59 | -33.98504 | 141.52438 | 35246 ft | 484 kts | 77° |
| 2026-04-28 04:59 | -33.96812 | 141.60213 | 35247 ft | 485 kts | 77° |
| 2026-04-28 05:00 | -33.95094 | 141.68077 | 35244 ft | 486 kts | 77° |
| 2026-04-28 05:00 | -33.93368 | 141.75955 | 35250 ft | 487 kts | 77° |
| 2026-04-28 05:01 | -33.91652 | 141.83752 | 35256 ft | 488 kts | 77° |
| 2026-04-28 05:01 | -33.89990 | 141.91281 | 35247 ft | 489 kts | 77° |
| 2026-04-28 05:02 | -33.88258 | 141.99118 | 35241 ft | 489 kts | 77° |
| 2026-04-28 05:02 | -33.86504 | 142.07023 | 35254 ft | 489 kts | 77° |
| 2026-04-28 05:03 | -33.84753 | 142.14884 | 35248 ft | 489 kts | 77° |
| 2026-04-28 05:03 | -33.83030 | 142.22603 | 35248 ft | 489 kts | 77° |
| 2026-04-28 05:04 | -33.81260 | 142.30491 | 35252 ft | 489 kts | 77° |
| 2026-04-28 05:04 | -33.79503 | 142.38299 | 35246 ft | 488 kts | 77° |
| 2026-04-28 05:05 | -33.77742 | 142.46108 | 35245 ft | 487 kts | 77° |
| 2026-04-28 05:05 | -33.75968 | 142.53946 | 35252 ft | 486 kts | 77° |
| 2026-04-28 05:06 | -33.74191 | 142.61769 | 35248 ft | 485 kts | 77° |
| 2026-04-28 05:06 | -33.72419 | 142.69546 | 35235 ft | 484 kts | 77° |
| 2026-04-28 05:07 | -33.70649 | 142.77273 | 35257 ft | 483 kts | 77° |
| 2026-04-28 05:07 | -33.68869 | 142.85039 | 35245 ft | 482 kts | 77° |
| 2026-04-28 05:08 | -33.67091 | 142.92789 | 35245 ft | 481 kts | 77° |
| 2026-04-28 05:08 | -33.65308 | 143.00525 | 35244 ft | 481 kts | 77° |
| 2026-04-28 05:09 | -33.63520 | 143.08249 | 35244 ft | 480 kts | 77° |
| 2026-04-28 05:09 | -33.61741 | 143.15915 | 35246 ft | 480 kts | 77° |
| 2026-04-28 05:10 | -33.59945 | 143.23632 | 35248 ft | 480 kts | 77° |
| 2026-04-28 05:10 | -33.58145 | 143.31336 | 35253 ft | 480 kts | 77° |
| 2026-04-28 05:11 | -33.56338 | 143.39054 | 35243 ft | 480 kts | 77° |
| 2026-04-28 05:11 | -33.54537 | 143.46717 | 35244 ft | 480 kts | 77° |
| 2026-04-28 05:12 | -33.52722 | 143.54422 | 35252 ft | 480 kts | 77° |
| 2026-04-28 05:12 | -33.50901 | 143.62127 | 35243 ft | 481 kts | 77° |
| 2026-04-28 05:13 | -33.49076 | 143.69827 | 35239 ft | 480 kts | 77° |
| 2026-04-28 05:13 | -33.47238 | 143.77521 | 35240 ft | 481 kts | 75° |
| 2026-04-28 05:14 | -33.45072 | 143.85050 | 35247 ft | 482 kts | 72° |
| 2026-04-28 05:14 | -33.42707 | 143.92558 | 35249 ft | 482 kts | 72° |
| 2026-04-28 05:15 | -33.40348 | 144.00075 | 35245 ft | 482 kts | 72° |
| 2026-04-28 05:15 | -33.38019 | 144.07603 | 35247 ft | 482 kts | 72° |
| 2026-04-28 05:16 | -33.35718 | 144.15081 | 35248 ft | 482 kts | 72° |
| 2026-04-28 05:16 | -33.33396 | 144.22614 | 35247 ft | 482 kts | 72° |
| 2026-04-28 05:17 | -33.29905 | 144.33897 | 35247 ft | 482 kts | 72° |
| 2026-04-28 05:17 | -33.27587 | 144.41361 | 35242 ft | 482 kts | 72° |
| 2026-04-28 05:18 | -33.25251 | 144.48867 | 35251 ft | 482 kts | 72° |
| 2026-04-28 05:18 | -33.22912 | 144.56362 | 35255 ft | 481 kts | 72° |
| 2026-04-28 05:19 | -33.20571 | 144.63845 | 35243 ft | 481 kts | 72° |
| 2026-04-28 05:19 | -33.18228 | 144.71317 | 35245 ft | 480 kts | 72° |
| 2026-04-28 05:20 | -33.15897 | 144.78730 | 35253 ft | 480 kts | 73° |
| 2026-04-28 05:20 | -33.13551 | 144.86176 | 35239 ft | 479 kts | 73° |
| 2026-04-28 05:21 | -33.11205 | 144.93605 | 35243 ft | 478 kts | 73° |
| 2026-04-28 05:21 | -33.08856 | 145.01023 | 35259 ft | 478 kts | 73° |
| 2026-04-28 05:22 | -33.06523 | 145.08373 | 35240 ft | 477 kts | 73° |
| 2026-04-28 05:22 | -33.04170 | 145.15769 | 35237 ft | 476 kts | 73° |
| 2026-04-28 05:23 | -33.01819 | 145.23141 | 35251 ft | 476 kts | 73° |
| 2026-04-28 05:23 | -32.99464 | 145.30508 | 35253 ft | 476 kts | 73° |
| 2026-04-28 05:24 | -32.97122 | 145.37818 | 35240 ft | 476 kts | 73° |
| 2026-04-28 05:24 | -32.94759 | 145.45177 | 35243 ft | 476 kts | 73° |
| 2026-04-28 05:25 | -32.92394 | 145.52524 | 35251 ft | 475 kts | 73° |
| 2026-04-28 05:25 | -32.90025 | 145.59865 | 35245 ft | 475 kts | 73° |
| 2026-04-28 05:26 | -32.87669 | 145.67149 | 35239 ft | 475 kts | 73° |
| 2026-04-28 05:26 | -32.85296 | 145.74469 | 35244 ft | 474 kts | 73° |
| 2026-04-28 05:27 | -32.82922 | 145.81775 | 35255 ft | 473 kts | 73° |
| 2026-04-28 05:27 | -32.80546 | 145.89072 | 35251 ft | 473 kts | 73° |
| 2026-04-28 05:28 | -32.78169 | 145.96354 | 35244 ft | 473 kts | 73° |
| 2026-04-28 05:28 | -32.75804 | 146.03583 | 35244 ft | 472 kts | 73° |
| 2026-04-28 05:29 | -32.73421 | 146.10850 | 35253 ft | 472 kts | 73° |
| 2026-04-28 05:29 | -32.71039 | 146.18102 | 35246 ft | 471 kts | 73° |
| 2026-04-28 05:30 | -32.68768 | 146.25385 | 35241 ft | 467 kts | 80° |
| 2026-04-28 05:30 | -32.67629 | 146.32837 | 35265 ft | 461 kts | 86° |
| 2026-04-28 05:31 | -32.66657 | 146.40355 | 35250 ft | 461 kts | 86° |
| 2026-04-28 05:31 | -32.65653 | 146.47862 | 35247 ft | 461 kts | 86° |
| 2026-04-28 05:32 | -32.64611 | 146.55368 | 35250 ft | 461 kts | 86° |
| 2026-04-28 05:32 | -32.63561 | 146.62813 | 35253 ft | 460 kts | 86° |
| 2026-04-28 05:33 | -32.62498 | 146.70303 | 35259 ft | 460 kts | 86° |
| 2026-04-28 05:33 | -32.61433 | 146.77788 | 35251 ft | 460 kts | 86° |
| 2026-04-28 05:34 | -32.60364 | 146.85274 | 35263 ft | 460 kts | 86° |
| 2026-04-28 05:34 | -32.59309 | 146.92628 | 35250 ft | 460 kts | 86° |
| 2026-04-28 05:35 | -32.58233 | 147.00095 | 35250 ft | 460 kts | 85° |
| 2026-04-28 05:35 | -32.57150 | 147.07575 | 35249 ft | 460 kts | 85° |
| 2026-04-28 05:36 | -32.56065 | 147.15041 | 35257 ft | 460 kts | 85° |
| 2026-04-28 05:36 | -32.54978 | 147.22489 | 35253 ft | 460 kts | 85° |
| 2026-04-28 05:37 | -32.53891 | 147.29905 | 35255 ft | 460 kts | 85° |
| 2026-04-28 05:37 | -32.52793 | 147.37366 | 35249 ft | 460 kts | 85° |
| 2026-04-28 05:38 | -32.51707 | 147.44710 | 35255 ft | 460 kts | 85° |
| 2026-04-28 05:38 | -32.50600 | 147.52172 | 35253 ft | 460 kts | 85° |
| 2026-04-28 05:39 | -32.49495 | 147.59581 | 35250 ft | 460 kts | 85° |
| 2026-04-28 05:39 | -32.48378 | 147.67045 | 35262 ft | 460 kts | 85° |
| 2026-04-28 05:40 | -32.47256 | 147.74508 | 35251 ft | 460 kts | 85° |
| 2026-04-28 05:40 | -32.46129 | 147.81973 | 35250 ft | 461 kts | 85° |
| 2026-04-28 05:41 | -32.44996 | 147.89444 | 35247 ft | 461 kts | 85° |
| 2026-04-28 05:41 | -32.43868 | 147.96860 | 35255 ft | 461 kts | 85° |
| 2026-04-28 05:42 | -32.42726 | 148.04331 | 35249 ft | 461 kts | 85° |
| 2026-04-28 05:42 | -32.41597 | 148.11683 | 35251 ft | 461 kts | 84° |
| 2026-04-28 05:43 | -32.40469 | 148.19003 | 35253 ft | 461 kts | 84° |
| 2026-04-28 05:43 | -32.39320 | 148.26435 | 35257 ft | 462 kts | 84° |
| 2026-04-28 05:44 | -32.38159 | 148.33912 | 35253 ft | 462 kts | 84° |
| 2026-04-28 05:44 | -32.37000 | 148.41339 | 35249 ft | 463 kts | 84° |
| 2026-04-28 05:45 | -32.35848 | 148.48700 | 35262 ft | 463 kts | 84° |
| 2026-04-28 05:45 | -32.34678 | 148.56138 | 35249 ft | 463 kts | 84° |
| 2026-04-28 05:46 | -32.33497 | 148.63623 | 35264 ft | 463 kts | 84° |
| 2026-04-28 05:46 | -32.32311 | 148.71108 | 35267 ft | 463 kts | 84° |
| 2026-04-28 05:47 | -32.31121 | 148.78592 | 35271 ft | 463 kts | 84° |
| 2026-04-28 05:47 | -32.29934 | 148.86023 | 35256 ft | 463 kts | 84° |
| 2026-04-28 05:48 | -32.28735 | 148.93502 | 35256 ft | 463 kts | 84° |
| 2026-04-28 05:48 | -32.27539 | 149.00941 | 35251 ft | 463 kts | 84° |
| 2026-04-28 05:49 | -32.25935 | 149.08337 | 35259 ft | 469 kts | 74° |
| 2026-04-28 05:49 | -32.23511 | 149.15509 | 35256 ft | 470 kts | 72° |
| 2026-04-28 05:50 | -32.21064 | 149.22617 | 35252 ft | 470 kts | 73° |
| 2026-04-28 05:50 | -32.18653 | 149.29782 | 35251 ft | 469 kts | 73° |
| 2026-04-28 05:51 | -32.16267 | 149.36953 | 35254 ft | 469 kts | 73° |
| 2026-04-28 05:51 | -32.13881 | 149.44121 | 35259 ft | 469 kts | 73° |
| 2026-04-28 05:52 | -32.11505 | 149.51240 | 35261 ft | 469 kts | 73° |
| 2026-04-28 05:52 | -32.09109 | 149.58396 | 35259 ft | 469 kts | 73° |
| 2026-04-28 05:53 | -32.06706 | 149.65556 | 35271 ft | 470 kts | 73° |
| 2026-04-28 05:53 | -32.04704 | 149.71511 | 35265 ft | 470 kts | 73° |
| 2026-04-28 05:54 | -32.01949 | 149.79689 | 35261 ft | 471 kts | 73° |
| 2026-04-28 05:54 | -31.99519 | 149.86849 | 35260 ft | 471 kts | 71° |
| 2026-04-28 05:55 | -31.95996 | 149.93430 | 35270 ft | 483 kts | 53° |
| 2026-04-28 05:55 | -31.92225 | 149.98291 | 35266 ft | 484 kts | 51° |
| 2026-04-28 05:56 | -31.86919 | 150.05048 | 35264 ft | 484 kts | 52° |
| 2026-04-28 05:56 | -31.83128 | 150.09953 | 35272 ft | 483 kts | 52° |
| 2026-04-28 05:57 | -31.78652 | 150.15782 | 35272 ft | 484 kts | 52° |
| 2026-04-28 05:57 | -31.74161 | 150.21628 | 35272 ft | 484 kts | 52° |
| 2026-04-28 05:58 | -31.68913 | 150.28439 | 35251 ft | 484 kts | 52° |
| 2026-04-28 05:58 | -31.65130 | 150.33342 | 35254 ft | 483 kts | 52° |
| 2026-04-28 05:59 | -31.60618 | 150.39117 | 35248 ft | 485 kts | 49° |
| 2026-04-28 05:59 | -31.55645 | 150.44487 | 35254 ft | 487 kts | 45° |
| 2026-04-28 06:00 | -31.50541 | 150.49697 | 35255 ft | 487 kts | 45° |
| 2026-04-28 06:00 | -31.45507 | 150.54881 | 35245 ft | 487 kts | 46° |
| 2026-04-28 06:01 | -31.40484 | 150.60115 | 35242 ft | 486 kts | 46° |
| 2026-04-28 06:01 | -31.35438 | 150.65393 | 35240 ft | 487 kts | 46° |
| 2026-04-28 06:02 | -31.30389 | 150.70667 | 35239 ft | 487 kts | 46° |
| 2026-04-28 06:02 | -31.25392 | 150.75877 | 35255 ft | 487 kts | 46° |
| 2026-04-28 06:03 | -31.20363 | 150.81109 | 35244 ft | 487 kts | 46° |
| 2026-04-28 06:03 | -31.15358 | 150.86309 | 35239 ft | 488 kts | 46° |
| 2026-04-28 06:04 | -31.10285 | 150.91570 | 35236 ft | 488 kts | 46° |
| 2026-04-28 06:04 | -31.05214 | 150.96823 | 35234 ft | 488 kts | 46° |
| 2026-04-28 06:05 | -31.00175 | 151.02034 | 35249 ft | 487 kts | 46° |
| 2026-04-28 06:05 | -30.95098 | 151.07278 | 35253 ft | 488 kts | 45° |
| 2026-04-28 06:06 | -30.90027 | 151.12507 | 35248 ft | 487 kts | 45° |
| 2026-04-28 06:06 | -30.84958 | 151.17727 | 35263 ft | 486 kts | 45° |
| 2026-04-28 06:07 | -30.79901 | 151.22927 | 35262 ft | 485 kts | 45° |
| 2026-04-28 06:07 | -30.74881 | 151.28081 | 35261 ft | 484 kts | 44° |
| 2026-04-28 06:08 | -30.69835 | 151.33255 | 35261 ft | 484 kts | 44° |
| 2026-04-28 06:08 | -30.64791 | 151.38417 | 35267 ft | 482 kts | 43° |
| 2026-04-28 06:09 | -30.59796 | 151.43525 | 35273 ft | 481 kts | 43° |
| 2026-04-28 06:09 | -30.54868 | 151.48557 | 35266 ft | 480 kts | 43° |
| 2026-04-28 06:10 | -30.49929 | 151.53592 | 35269 ft | 478 kts | 43° |
| 2026-04-28 06:10 | -30.44942 | 151.58671 | 35274 ft | 478 kts | 43° |
| 2026-04-28 06:11 | -30.39939 | 151.63763 | 35290 ft | 477 kts | 43° |
| 2026-04-28 06:11 | -30.35255 | 151.69121 | 35281 ft | 475 kts | 47° |
| 2026-04-28 06:12 | -30.30709 | 151.74660 | 35271 ft | 474 kts | 47° |
| 2026-04-28 06:12 | -30.26161 | 151.80180 | 35279 ft | 473 kts | 47° |
| 2026-04-28 06:13 | -30.21593 | 151.85657 | 35281 ft | 473 kts | 46° |
| 2026-04-28 06:13 | -30.17052 | 151.91066 | 35282 ft | 472 kts | 46° |
| 2026-04-28 06:14 | -30.12469 | 151.96513 | 35281 ft | 472 kts | 46° |
| 2026-04-28 06:14 | -30.07894 | 152.01943 | 35278 ft | 472 kts | 46° |
| 2026-04-28 06:15 | -30.03312 | 152.07374 | 35276 ft | 472 kts | 46° |
| 2026-04-28 06:15 | -29.97991 | 152.13677 | 35283 ft | 472 kts | 46° |
| 2026-04-28 06:16 | -29.94182 | 152.18183 | 35275 ft | 472 kts | 46° |
| 2026-04-28 06:16 | -29.89601 | 152.23596 | 35273 ft | 472 kts | 46° |
| 2026-04-28 06:17 | -29.85002 | 152.29020 | 35267 ft | 473 kts | 45° |
| 2026-04-28 06:18 | -29.78131 | 152.37099 | 35263 ft | 473 kts | 46° |
| 2026-04-28 06:18 | -29.73537 | 152.42518 | 35266 ft | 473 kts | 45° |
| 2026-04-28 06:19 | -29.68936 | 152.47922 | 35287 ft | 473 kts | 45° |
| 2026-04-28 06:19 | -29.64321 | 152.53331 | 35268 ft | 474 kts | 45° |
| 2026-04-28 06:20 | -29.59710 | 152.58729 | 35259 ft | 473 kts | 45° |
| 2026-04-28 06:20 | -29.55130 | 152.64094 | 35260 ft | 473 kts | 45° |
| 2026-04-28 06:20 | -29.52824 | 152.66787 | 35144 ft | 475 kts | 45° |
| 2026-04-28 06:21 | -29.50497 | 152.69498 | 34587 ft | 475 kts | 45° |
| 2026-04-28 06:21 | -29.48191 | 152.72186 | 33880 ft | 472 kts | 45° |
| 2026-04-28 06:21 | -29.45889 | 152.74865 | 33158 ft | 470 kts | 45° |
| 2026-04-28 06:21 | -29.42895 | 152.78351 | 32215 ft | 468 kts | 45° |
| 2026-04-28 06:22 | -29.38342 | 152.83648 | 30781 ft | 465 kts | 46° |
| 2026-04-28 06:22 | -29.33878 | 152.88833 | 29084 ft | 463 kts | 46° |
| 2026-04-28 06:22 | -29.29360 | 152.94072 | 27319 ft | 459 kts | 46° |
| 2026-04-28 06:22 | -29.24901 | 152.99243 | 25905 ft | 450 kts | 46° |
| 2026-04-28 06:23 | -29.20571 | 153.04252 | 24717 ft | 435 kts | 47° |
| 2026-04-28 06:23 | -29.16318 | 153.09168 | 23522 ft | 438 kts | 47° |
| 2026-04-28 06:23 | -29.12291 | 153.13822 | 22273 ft | 442 kts | 47° |
| 2026-04-28 06:23 | -29.08035 | 153.18727 | 20984 ft | 426 kts | 47° |
| 2026-04-28 06:24 | -29.03933 | 153.23451 | 19804 ft | 412 kts | 47° |
| 2026-04-28 06:24 | -28.99983 | 153.27993 | 18694 ft | 405 kts | 47° |
| 2026-04-28 06:24 | -28.96052 | 153.32515 | 17449 ft | 398 kts | 46° |
| 2026-04-28 06:24 | -28.92139 | 153.37006 | 16274 ft | 402 kts | 47° |
| 2026-04-28 06:25 | -28.88176 | 153.41558 | 15121 ft | 404 kts | 46° |
| 2026-04-28 06:25 | -28.84245 | 153.45991 | 13942 ft | 392 kts | 41° |
| 2026-04-28 06:25 | -28.79357 | 153.48556 | 12725 ft | 382 kts | 21° |
| 2026-04-28 06:25 | -28.74458 | 153.50680 | 11590 ft | 373 kts | 23° |
| 2026-04-28 06:26 | -28.69741 | 153.52786 | 11145 ft | 354 kts | 23° |
| 2026-04-28 06:26 | -28.65262 | 153.54773 | 10845 ft | 336 kts | 23° |
| 2026-04-28 06:26 | -28.61261 | 153.56545 | 10574 ft | 313 kts | 23° |
| 2026-04-28 06:26 | -28.58373 | 153.57826 | 10411 ft | 298 kts | 24° |
| 2026-04-28 06:27 | -28.56474 | 153.58668 | 10266 ft | 289 kts | 24° |
| 2026-04-28 06:27 | -28.54599 | 153.59499 | 9922 ft | 289 kts | 24° |
| 2026-04-28 06:27 | -28.52821 | 153.60287 | 9629 ft | 287 kts | 24° |
| 2026-04-28 06:27 | -28.51063 | 153.61012 | 9334 ft | 286 kts | 21° |
| 2026-04-28 06:28 | -28.49295 | 153.61674 | 9049 ft | 284 kts | 21° |
| 2026-04-28 06:28 | -28.47520 | 153.62325 | 8767 ft | 282 kts | 20° |
| 2026-04-28 06:28 | -28.45618 | 153.63030 | 8477 ft | 279 kts | 21° |
| 2026-04-28 06:28 | -28.43968 | 153.63648 | 8227 ft | 278 kts | 21° |
| 2026-04-28 06:29 | -28.42142 | 153.64335 | 7955 ft | 276 kts | 22° |
| 2026-04-28 06:29 | -28.40325 | 153.65021 | 7675 ft | 274 kts | 21° |
| 2026-04-28 06:29 | -28.38516 | 153.65694 | 7396 ft | 273 kts | 21° |
| 2026-04-28 06:29 | -28.36744 | 153.66339 | 7108 ft | 272 kts | 20° |
| 2026-04-28 06:30 | -28.35063 | 153.66947 | 6848 ft | 271 kts | 21° |
| 2026-04-28 06:30 | -28.33389 | 153.67554 | 6585 ft | 270 kts | 21° |
| 2026-04-28 06:30 | -28.31609 | 153.68199 | 6284 ft | 268 kts | 20° |
| 2026-04-28 06:30 | -28.29834 | 153.68841 | 6005 ft | 267 kts | 20° |
| 2026-04-28 06:31 | -28.28019 | 153.69044 | 5713 ft | 271 kts | 351° |
| 2026-04-28 06:31 | -28.26261 | 153.68322 | 5490 ft | 269 kts | 336° |
| 2026-04-28 06:31 | -28.24590 | 153.67382 | 5214 ft | 265 kts | 334° |
| 2026-04-28 06:31 | -28.22966 | 153.66452 | 4980 ft | 257 kts | 334° |
| 2026-04-28 06:32 | -28.21374 | 153.65549 | 4864 ft | 255 kts | 335° |
| 2026-04-28 06:32 | -28.19780 | 153.64656 | 4738 ft | 255 kts | 335° |
| 2026-04-28 06:32 | -28.18182 | 153.63769 | 4636 ft | 263 kts | 335° |
| 2026-04-28 06:32 | -28.16527 | 153.62853 | 4530 ft | 268 kts | 335° |
| 2026-04-28 06:33 | -28.14898 | 153.61891 | 4291 ft | 259 kts | 327° |
| 2026-04-28 06:33 | -28.13508 | 153.60672 | 4060 ft | 247 kts | 320° |
| 2026-04-28 06:33 | -28.12223 | 153.59446 | 3801 ft | 237 kts | 320° |
| 2026-04-28 06:33 | -28.10977 | 153.58273 | 3556 ft | 228 kts | 321° |
| 2026-04-28 06:34 | -28.09772 | 153.57157 | 3367 ft | 218 kts | 321° |
| 2026-04-28 06:34 | -28.08659 | 153.56044 | 3304 ft | 211 kts | 313° |
| 2026-04-28 06:34 | -28.07775 | 153.54720 | 3296 ft | 212 kts | 297° |
| 2026-04-28 06:34 | -28.07227 | 153.53212 | 3271 ft | 199 kts | 280° |
| 2026-04-28 06:35 | -28.07074 | 153.51780 | 3298 ft | 175 kts | 264° |
| 2026-04-28 06:35 | -28.07198 | 153.50421 | 3174 ft | 173 kts | 253° |
| 2026-04-28 06:35 | -28.07485 | 153.49125 | 3014 ft | 167 kts | 242° |
| 2026-04-28 06:35 | -28.08075 | 153.48024 | 2733 ft | 162 kts | 220° |
| 2026-04-28 06:36 | -28.08986 | 153.47334 | 2220 ft | 155 kts | 195° |
| 2026-04-28 06:36 | -28.09998 | 153.47132 | 1896 ft | 141 kts | 180° |
| 2026-04-28 06:36 | -28.10956 | 153.47130 | 1480 ft | 136 kts | 166° |
| 2026-04-28 06:36 | -28.11794 | 153.47583 | 1080 ft | 133 kts | 149° |
| 2026-04-28 06:37 | -28.12558 | 153.48109 | 845 ft | 127 kts | 150° |
| 2026-04-28 06:37 | -28.13363 | 153.48616 | 560 ft | 134 kts | 158° |
| 2026-04-28 06:37 | -28.14216 | 153.49155 | 416 ft | 143 kts | 152° |
| 2026-04-28 06:37 | -28.15082 | 153.49714 | 226 ft | 144 kts | 152° |
| 2026-04-28 06:38 | -28.15961 | 153.50271 | 39 ft | 141 kts | 153° |
| 2026-04-28 06:38 | -28.16702 | 153.50741 | 28 ft | 77 kts | 150° |
| 2026-04-28 06:38 | -28.16936 | 153.50896 | 28 ft | 18 kts | 123° |
| 2026-04-28 06:38 | -28.16908 | 153.51030 | 25 ft | 18 kts | 63° |
| 2026-04-28 06:39 | -28.16829 | 153.51131 | 27 ft | 18 kts | 356° |
| 2026-04-28 06:39 | -28.16778 | 153.51180 | 25 ft | 8 kts | 63° |
| 2026-04-28 06:39 | -28.16771 | 153.51196 | 27 ft | 1 kts | 62° |
| 2026-04-28 06:39 | -28.16786 | 153.51216 | 25 ft | 4 kts | 129° |
| 2026-04-28 06:40 | -28.16783 | 153.51234 | 27 ft | 2 kts | 65° |
| 2026-04-28 06:40 | -28.16777 | 153.51245 | 25 ft | 0 kts | 59° |
| 2026-04-28 06:40 | -28.16777 | 153.51246 | 25 ft | 0 kts | 59° |